createdAt,value
2023-05-03T00:01:19.023Z,100877.03
2023-05-03T00:03:45.993Z,100865.88
2023-05-03T00:06:16.283Z,100872.97
2023-05-03T00:08:42.979Z,100877.09
2023-05-03T00:11:09.903Z,100880.16
2023-05-03T00:13:36.751Z,100881.53
2023-05-03T00:16:03.622Z,100876.06
2023-05-03T00:18:30.706Z,100879.22
2023-05-03T00:20:59.455Z,100873.91
2023-05-03T00:23:26.767Z,100880.44
2023-05-03T00:25:57.437Z,100882.03
2023-05-03T00:28:24.963Z,100866.44
2023-05-03T00:30:52.586Z,100870.03
2023-05-03T00:33:19.213Z,100870.94
2023-05-03T00:35:45.797Z,100865.19
2023-05-03T00:38:14.328Z,100856.53
2023-05-03T00:40:41.044Z,100852.75
2023-05-03T00:43:07.659Z,100851.75
2023-05-03T00:45:34.671Z,100864.47
2023-05-03T00:48:01.617Z,100870.91
2023-05-03T00:50:28.567Z,100870.91
2023-05-03T00:52:55.384Z,100863.44
2023-05-03T00:55:22.208Z,100879.19
2023-05-03T00:57:48.652Z,100879.50
2023-05-03T01:00:15.593Z,100886.34
2023-05-03T01:02:42.237Z,100890.31
2023-05-03T01:05:09.095Z,100890.44
2023-05-03T01:07:41.331Z,100887.72
2023-05-03T01:10:21.629Z,100902.28
2023-05-03T01:13:23.402Z,100894.22
2023-05-03T01:16:11.866Z,100902.56
2023-05-03T01:18:40.234Z,100904.06
2023-05-03T01:21:09.185Z,100906.78
2023-05-03T01:23:57.311Z,100906.91
2023-05-03T01:26:26.029Z,100901.38
2023-05-03T01:28:52.584Z,100912.47
2023-05-03T01:31:26.711Z,100918.13
2023-05-03T01:34:08.110Z,100915.19
2023-05-03T01:36:35.492Z,100911.28
2023-05-03T01:39:14.261Z,100921.59
2023-05-03T01:41:42.069Z,100924.38
2023-05-03T01:44:09.855Z,100931.53
2023-05-03T01:46:42.755Z,100935.28
2023-05-03T01:49:09.284Z,100936.38
2023-05-03T01:51:35.853Z,100924.34
2023-05-03T01:54:02.829Z,100928.16
2023-05-03T01:56:30.698Z,100923.59
2023-05-03T01:58:57.246Z,100920.19
2023-05-03T02:01:23.745Z,100921.28
2023-05-03T02:03:50.267Z,100917.81
2023-05-03T02:06:16.832Z,100915.13
2023-05-03T02:08:43.281Z,100915.63
2023-05-03T02:11:09.701Z,100908.28
2023-05-03T02:13:37.887Z,100915.03
2023-05-03T02:16:04.750Z,100917.38
2023-05-03T02:18:31.500Z,100920.06
2023-05-03T02:20:58.020Z,100929.38
2023-05-03T02:23:24.547Z,100929.25
2023-05-03T02:25:51.136Z,100935.88
2023-05-03T02:28:17.582Z,100953.47
2023-05-03T02:30:44.239Z,100942.84
2023-05-03T02:33:10.929Z,100944.78
2023-05-03T02:35:37.445Z,100942.34
2023-05-03T02:38:04.231Z,100938.56
2023-05-03T02:40:30.703Z,100939.00
2023-05-03T02:42:57.194Z,100935.94
2023-05-03T02:45:24.315Z,100947.06
2023-05-03T02:47:50.990Z,100936.00
2023-05-03T02:50:17.525Z,100939.56
2023-05-03T02:52:44.231Z,100941.28
2023-05-03T02:55:10.672Z,100942.88
2023-05-03T02:57:37.116Z,100935.94
2023-05-03T03:00:05.870Z,100937.91
2023-05-03T03:02:33.112Z,100933.38
2023-05-03T03:04:59.618Z,100940.84
2023-05-03T03:07:26.274Z,100940.56
2023-05-03T03:09:52.735Z,100943.78
2023-05-03T03:12:19.457Z,100938.03
2023-05-03T03:14:45.994Z,100953.00
2023-05-03T03:17:13.210Z,100951.41
2023-05-03T03:19:39.823Z,100947.00
2023-05-03T03:22:06.724Z,100959.25
2023-05-03T03:24:33.447Z,100959.09
2023-05-03T03:27:00.033Z,100952.13
2023-05-03T03:29:27.960Z,100964.38
2023-05-03T03:31:54.747Z,100962.22
2023-05-03T03:34:21.328Z,100971.25
2023-05-03T03:36:48.610Z,100966.91
2023-05-03T03:39:15.329Z,100974.53
2023-05-03T03:41:42.457Z,100980.66
2023-05-03T03:44:09.114Z,100978.09
2023-05-03T03:46:35.844Z,100975.41
2023-05-03T03:49:02.522Z,100964.50
2023-05-03T03:51:29.212Z,100974.59
2023-05-03T03:53:55.853Z,100990.69
2023-05-03T03:56:23.785Z,100993.97
2023-05-03T03:58:50.434Z,100997.75
2023-05-03T04:01:17.013Z,100998.09
2023-05-03T04:03:47.382Z,101000.06
2023-05-03T04:06:14.140Z,101000.31
2023-05-03T04:08:40.978Z,101010.16
2023-05-03T04:11:12.533Z,101013.13
2023-05-03T04:13:39.369Z,101016.16
2023-05-03T04:16:07.109Z,101022.16
2023-05-03T04:18:33.655Z,101023.13
2023-05-03T04:21:00.175Z,101020.44
2023-05-03T04:23:26.831Z,101011.94
2023-05-03T04:25:53.367Z,101014.25
2023-05-03T04:28:20.561Z,101024.47
2023-05-03T04:30:47.354Z,101025.47
2023-05-03T04:33:14.032Z,101016.06
2023-05-03T04:35:41.448Z,101023.31
2023-05-03T04:38:09.008Z,101032.84
2023-05-03T04:40:35.898Z,101023.31
2023-05-03T04:43:02.429Z,101037.16
2023-05-03T04:45:28.994Z,101026.88
2023-05-03T04:47:55.726Z,101026.88
2023-05-03T04:50:22.186Z,101042.19
2023-05-03T04:52:48.697Z,101044.31
2023-05-03T04:55:15.390Z,101052.63
2023-05-03T04:57:42.441Z,101053.00
2023-05-03T05:00:12.658Z,101051.66
2023-05-03T05:02:39.260Z,101054.81
2023-05-03T05:05:06.292Z,101055.19
2023-05-03T05:07:32.871Z,101059.47
2023-05-03T05:09:59.396Z,101056.94
2023-05-03T05:12:26.148Z,101064.03
2023-05-03T05:14:52.668Z,101055.31
2023-05-03T05:17:19.354Z,101066.88
2023-05-03T05:19:45.890Z,101066.75
2023-05-03T05:22:12.447Z,101070.06
2023-05-03T05:24:39.021Z,101069.06
2023-05-03T05:27:06.685Z,101065.03
2023-05-03T05:29:33.398Z,101068.97
2023-05-03T05:32:01.862Z,101061.81
2023-05-03T05:34:29.816Z,101062.97
2023-05-03T05:36:58.849Z,101069.22
2023-05-03T05:39:25.952Z,101078.50
2023-05-03T05:41:52.498Z,101072.94
2023-05-03T05:44:18.956Z,101082.41
2023-05-03T05:46:46.539Z,101082.59
2023-05-03T05:49:13.338Z,101086.31
2023-05-03T05:51:40.060Z,101083.63
2023-05-03T05:54:07.752Z,101081.59
2023-05-03T05:56:34.398Z,101088.16
2023-05-03T05:59:01.093Z,101095.75
2023-05-03T06:01:27.791Z,101096.56
2023-05-03T06:03:55.519Z,101095.94
2023-05-03T06:06:22.159Z,101099.41
2023-05-03T06:08:51.374Z,101104.84
2023-05-03T06:11:18.237Z,101106.28
2023-05-03T06:13:44.868Z,101112.78
2023-05-03T06:16:11.867Z,101104.47
2023-05-03T06:18:39.081Z,101100.97
2023-05-03T06:21:05.830Z,101103.59
2023-05-03T06:23:33.433Z,101106.25
2023-05-03T06:25:59.965Z,101112.13
2023-05-03T06:28:26.452Z,101111.22
2023-05-03T06:30:53.010Z,101110.94
2023-05-03T06:33:19.596Z,101113.69
2023-05-03T06:35:47.213Z,101112.50
2023-05-03T06:38:13.799Z,101104.91
2023-05-03T06:40:41.639Z,101109.66
2023-05-03T06:43:08.186Z,101113.34
2023-05-03T06:45:34.725Z,101109.28
2023-05-03T06:48:01.440Z,101119.47
2023-05-03T06:50:28.116Z,101119.91
2023-05-03T06:52:54.737Z,101108.31
2023-05-03T06:55:21.402Z,101112.19
2023-05-03T06:57:48.389Z,101124.13
2023-05-03T07:00:15.964Z,101113.50
2023-05-03T07:02:42.899Z,101106.91
2023-05-03T07:05:09.928Z,101113.72
2023-05-03T07:07:36.738Z,101128.75
2023-05-03T07:10:03.940Z,101129.31
2023-05-03T07:12:30.832Z,101124.94
2023-05-03T07:14:57.830Z,101120.53
2023-05-03T07:17:24.862Z,101124.53
2023-05-03T07:19:51.794Z,101117.63
2023-05-03T07:22:20.700Z,101126.94
2023-05-03T07:24:47.409Z,101127.22
2023-05-03T07:27:15.500Z,101122.69
2023-05-03T07:29:42.041Z,101130.09
2023-05-03T07:32:09.031Z,101123.91
2023-05-03T07:34:35.559Z,101130.69
2023-05-03T07:37:02.038Z,101128.03
2023-05-03T07:39:28.595Z,101135.44
2023-05-03T07:41:55.294Z,101143.59
2023-05-03T07:44:22.456Z,101138.75
2023-05-03T07:46:49.167Z,101135.34
2023-05-03T07:49:16.203Z,101129.06
2023-05-03T07:51:42.870Z,101131.50
2023-05-03T07:54:09.497Z,101133.81
2023-05-03T07:56:36.412Z,101133.28
2023-05-03T07:59:09.086Z,101133.63
2023-05-03T08:01:37.196Z,101128.00
2023-05-03T08:04:04.685Z,101127.38
2023-05-03T08:06:31.872Z,101138.97
2023-05-03T08:08:58.804Z,101139.78
2023-05-03T08:11:27.235Z,101138.53
2023-05-03T08:13:53.753Z,101144.78
2023-05-03T08:16:20.514Z,101130.34
2023-05-03T08:18:47.328Z,101130.13
2023-05-03T08:21:15.064Z,101137.19
2023-05-03T08:23:42.464Z,101125.97
2023-05-03T08:26:10.030Z,101142.50
2023-05-03T08:28:36.590Z,101131.59
2023-05-03T08:31:06.768Z,101139.00
2023-05-03T08:33:33.490Z,101133.34
2023-05-03T08:36:00.179Z,101126.97
2023-05-03T08:38:27.302Z,101122.56
2023-05-03T08:40:55.730Z,101127.28
2023-05-03T08:43:24.063Z,101135.19
2023-05-03T08:45:51.499Z,101135.63
2023-05-03T08:48:18.447Z,101136.72
2023-05-03T08:50:45.043Z,101139.03
2023-05-03T08:53:12.170Z,101131.09
2023-05-03T08:55:38.951Z,101146.66
2023-05-03T08:58:12.462Z,101139.34
2023-05-03T09:00:39.149Z,101148.50
2023-05-03T09:03:07.547Z,101151.28
2023-05-03T09:05:35.766Z,101151.41
2023-05-03T09:08:06.540Z,101153.88
2023-05-03T09:10:34.434Z,101146.16
2023-05-03T09:13:02.371Z,101142.41
2023-05-03T09:15:31.888Z,101143.56
2023-05-03T09:18:18.220Z,101164.50
2023-05-03T09:20:56.028Z,101158.44
2023-05-03T09:23:26.686Z,101158.88
2023-05-03T09:25:53.342Z,101157.13
2023-05-03T09:28:20.874Z,101155.28
2023-05-03T09:30:48.361Z,101142.34
2023-05-03T09:33:22.149Z,101147.59
2023-05-03T09:36:03.376Z,101149.09
2023-05-03T09:38:32.385Z,101160.06
2023-05-03T09:40:59.135Z,101164.22
2023-05-03T09:43:25.779Z,101162.72
2023-05-03T09:45:52.459Z,101153.44
2023-05-03T09:48:23.476Z,101152.81
2023-05-03T09:50:50.988Z,101153.72
2023-05-03T09:53:18.984Z,101154.03
2023-05-03T09:55:46.994Z,101152.00
2023-05-03T09:58:13.851Z,101151.41
2023-05-03T10:00:42.659Z,101156.25
2023-05-03T10:03:15.396Z,101148.94
2023-05-03T10:05:49.066Z,101147.44
2023-05-03T10:08:28.352Z,101150.25
2023-05-03T10:10:55.348Z,101157.38
2023-05-03T10:13:22.851Z,101155.41
2023-05-03T10:15:53.805Z,101152.06
2023-05-03T10:18:21.270Z,101158.44
2023-05-03T10:21:01.943Z,101166.69
2023-05-03T10:23:28.596Z,101148.63
2023-05-03T10:26:13.335Z,101149.81
2023-05-03T10:28:40.097Z,101138.00
2023-05-03T10:31:06.652Z,101147.00
2023-05-03T10:33:36.689Z,101147.22
2023-05-03T10:36:07.584Z,101151.81
2023-05-03T10:38:34.092Z,101155.16
2023-05-03T10:41:03.626Z,101158.06
2023-05-03T10:43:33.589Z,101161.25
2023-05-03T10:46:03.647Z,101153.84
2023-05-03T10:48:34.695Z,101150.88
2023-05-03T10:51:29.011Z,101158.50
2023-05-03T10:53:55.906Z,101150.72
2023-05-03T10:56:22.752Z,101156.72
2023-05-03T10:58:56.637Z,101148.28
2023-05-03T11:01:24.671Z,101157.44
2023-05-03T11:04:10.181Z,101159.78
2023-05-03T11:06:41.371Z,101159.47
2023-05-03T11:09:10.013Z,101158.44
2023-05-03T11:11:39.496Z,101152.06
2023-05-03T11:14:07.468Z,101144.88
2023-05-03T11:16:36.560Z,101152.06
2023-05-03T11:19:03.857Z,101144.53
2023-05-03T11:21:31.411Z,101169.75
2023-05-03T11:23:59.209Z,101161.66
2023-05-03T11:26:26.698Z,101159.31
2023-05-03T11:28:53.994Z,101163.78
2023-05-03T11:31:21.110Z,101157.88
2023-05-03T11:33:49.468Z,101157.38
2023-05-03T11:36:16.283Z,101151.31
2023-05-03T11:38:42.881Z,101152.41
2023-05-03T11:41:13.337Z,101158.53
2023-05-03T11:43:49.449Z,101162.50
2023-05-03T11:46:22.202Z,101161.84
2023-05-03T11:48:48.931Z,101160.63
2023-05-03T11:51:16.277Z,101163.88
2023-05-03T11:53:44.067Z,101166.94
2023-05-03T11:56:15.264Z,101164.84
2023-05-03T11:58:58.637Z,101164.16
2023-05-03T12:01:26.922Z,101161.31
2023-05-03T12:03:57.653Z,101159.69
2023-05-03T12:06:25.858Z,101156.78
2023-05-03T12:08:54.699Z,101166.78
2023-05-03T12:11:23.332Z,101164.84
2023-05-03T12:14:02.813Z,101170.59
2023-05-03T12:16:46.706Z,101159.28
2023-05-03T12:19:24.286Z,101162.56
2023-05-03T12:22:04.811Z,101155.66
2023-05-03T12:24:39.398Z,101147.75
2023-05-03T12:27:08.666Z,101158.75
2023-05-03T12:29:35.675Z,101147.97
2023-05-03T12:32:03.692Z,101148.16
2023-05-03T12:34:35.587Z,101140.72
2023-05-03T12:37:05.651Z,101144.56
2023-05-03T12:39:33.700Z,101134.31
2023-05-03T12:44:35.105Z,101147.16
2023-05-03T12:47:02.963Z,101140.88
2023-05-03T12:49:30.182Z,101128.84
2023-05-03T12:54:33.376Z,101135.97
2023-05-03T12:57:08.225Z,101139.16
2023-05-03T12:59:41.781Z,101135.31
2023-05-03T13:04:57.075Z,101132.31
2023-05-03T13:07:29.532Z,101132.81
2023-05-03T13:12:27.463Z,101120.78
2023-05-03T13:14:54.938Z,101136.59
2023-05-03T13:17:22.823Z,101132.31
2023-05-03T13:19:51.174Z,101130.81
2023-05-03T13:22:17.986Z,101128.31
2023-05-03T13:24:46.048Z,101126.13
2023-05-03T13:27:12.640Z,101123.56
2023-05-03T13:29:39.892Z,101122.38
2023-05-03T13:32:07.057Z,101114.16
2023-05-03T13:34:34.174Z,101112.69
2023-05-03T13:37:01.789Z,101107.47
2023-05-03T13:39:28.472Z,101117.34
2023-05-03T13:41:54.934Z,101111.00
2023-05-03T13:44:25.159Z,101109.28
2023-05-03T13:46:56.300Z,101105.50
2023-05-03T13:49:22.783Z,101095.84
2023-05-03T13:51:49.528Z,101090.06
2023-05-03T13:54:16.230Z,101092.41
2023-05-03T13:56:43.079Z,101097.75
2023-05-03T13:59:11.928Z,101094.69
2023-05-03T14:01:38.788Z,101098.25
2023-05-03T14:04:05.749Z,101089.69
2023-05-03T14:06:33.546Z,101095.84
2023-05-03T14:09:01.619Z,101095.28
2023-05-03T14:11:28.639Z,101088.13
2023-05-03T14:13:57.326Z,101092.19
2023-05-03T14:16:36.432Z,101095.16
2023-05-03T14:19:07.910Z,101088.34
2023-05-03T14:21:34.718Z,101085.59
2023-05-03T14:24:01.720Z,101099.25
2023-05-03T14:26:29.564Z,101108.34
2023-05-03T14:28:56.337Z,101104.19
2023-05-03T14:31:22.983Z,101096.22
2023-05-03T14:33:49.545Z,101100.63
2023-05-03T14:36:16.223Z,101101.31
2023-05-03T14:38:42.696Z,101095.28
2023-05-03T14:41:09.431Z,101097.63
2023-05-03T14:43:36.112Z,101094.56
2023-05-03T14:46:02.689Z,101093.41
2023-05-03T14:48:29.222Z,101093.03
2023-05-03T14:50:56.446Z,101100.28
2023-05-03T14:53:23.431Z,101106.28
2023-05-03T14:55:50.206Z,101102.50
2023-05-03T14:58:17.107Z,101099.88
2023-05-03T15:00:43.859Z,101107.66
2023-05-03T15:03:12.305Z,101105.09
2023-05-03T15:05:45.822Z,101100.47
2023-05-03T15:08:15.359Z,101100.81
2023-05-03T15:10:44.369Z,101103.53
2023-05-03T15:13:11.979Z,101093.94
2023-05-03T15:15:39.806Z,101101.50
2023-05-03T15:18:07.995Z,101095.69
2023-05-03T15:20:35.085Z,101103.22
2023-05-03T15:23:03.220Z,101105.44
2023-05-03T15:25:30.040Z,101106.47
2023-05-03T15:27:56.724Z,101102.00
2023-05-03T15:30:23.354Z,101104.25
2023-05-03T15:32:51.276Z,101102.88
2023-05-03T15:35:18.223Z,101104.53
2023-05-03T15:37:45.149Z,101113.56
2023-05-03T15:40:13.287Z,101106.09
2023-05-03T15:42:39.941Z,101109.78
2023-05-03T15:45:08.699Z,101103.19
2023-05-03T15:47:35.677Z,101116.09
2023-05-03T15:50:02.979Z,101114.78
2023-05-03T15:52:29.936Z,101118.28
2023-05-03T15:54:56.534Z,101116.34
2023-05-03T15:57:23.645Z,101110.16
2023-05-03T15:59:50.337Z,101110.72
2023-05-03T16:02:17.033Z,101107.19
2023-05-03T16:04:43.582Z,101118.19
2023-05-03T16:07:10.133Z,101110.56
2023-05-03T16:09:36.733Z,101113.38
2023-05-03T16:12:03.695Z,101104.75
2023-05-03T16:14:30.534Z,101115.41
2023-05-03T16:16:57.230Z,101107.25
2023-05-03T16:19:23.951Z,101108.56
2023-05-03T16:21:50.664Z,101107.25
2023-05-03T16:24:18.576Z,101107.72
2023-05-03T16:26:45.386Z,101114.22
2023-05-03T16:29:11.941Z,101113.41
2023-05-03T16:31:38.451Z,101114.75
2023-05-03T16:34:05.122Z,101111.38
2023-05-03T16:36:33.125Z,101104.44
2023-05-03T16:38:59.735Z,101108.81
2023-05-03T16:41:26.460Z,101115.50
2023-05-03T16:43:52.968Z,101118.00
2023-05-03T16:46:20.221Z,101114.13
2023-05-03T16:48:48.132Z,101117.03
2023-05-03T16:51:14.812Z,101125.44
2023-05-03T16:53:41.521Z,101115.38
2023-05-03T16:56:08.193Z,101117.34
2023-05-03T16:58:34.904Z,101121.94
2023-05-03T17:01:01.491Z,101121.16
2023-05-03T17:03:28.261Z,101125.00
2023-05-03T17:05:54.979Z,101122.81
2023-05-03T17:08:21.751Z,101131.28
2023-05-03T17:10:48.475Z,101128.19
2023-05-03T17:13:16.546Z,101129.91
2023-05-03T17:15:43.320Z,101133.59
2023-05-03T17:18:10.122Z,101125.19
2023-05-03T17:20:37.084Z,101131.69
2023-05-03T17:23:03.629Z,101130.72
2023-05-03T17:25:30.186Z,101124.91
2023-05-03T17:27:57.117Z,101133.78
2023-05-03T17:30:23.653Z,101134.47
2023-05-03T17:32:50.238Z,101132.03
2023-05-03T17:35:17.099Z,101131.88
2023-05-03T17:37:44.883Z,101131.44
2023-05-03T17:40:12.245Z,101136.06
2023-05-03T17:42:39.124Z,101137.78
2023-05-03T17:45:06.635Z,101133.22
2023-05-03T17:47:33.154Z,101138.69
2023-05-03T17:49:59.792Z,101148.41
2023-05-03T17:52:26.356Z,101146.03
2023-05-03T17:54:53.010Z,101145.50
2023-05-03T17:57:22.120Z,101153.81
2023-05-03T17:59:48.707Z,101152.25
2023-05-03T18:02:15.319Z,101160.13
2023-05-03T18:04:41.892Z,101157.16
2023-05-03T18:07:08.410Z,101162.72
2023-05-03T18:09:34.971Z,101166.31
2023-05-03T18:12:02.003Z,101161.44
2023-05-03T18:14:28.531Z,101163.75
2023-05-03T18:16:55.447Z,101178.75
2023-05-03T18:19:22.696Z,101180.56
2023-05-03T18:21:49.237Z,101174.56
2023-05-03T18:24:16.301Z,101176.94
2023-05-03T18:26:43.094Z,101163.63
2023-05-03T18:29:10.008Z,101173.41
2023-05-03T18:31:36.744Z,101178.50
2023-05-03T18:34:03.650Z,101171.63
2023-05-03T18:36:31.215Z,101175.28
2023-05-03T18:38:57.738Z,101170.84
2023-05-03T18:41:24.523Z,101173.91
2023-05-03T18:43:52.006Z,101180.72
2023-05-03T18:46:19.320Z,101187.06
2023-05-03T18:48:47.552Z,101177.03
2023-05-03T18:51:14.312Z,101185.44
2023-05-03T18:53:40.882Z,101170.34
2023-05-03T18:56:07.702Z,101174.34
2023-05-03T18:58:34.224Z,101178.19
2023-05-03T19:01:00.999Z,101183.88
2023-05-03T19:03:29.512Z,101185.50
2023-05-03T19:06:00.061Z,101180.13
2023-05-03T19:08:26.629Z,101179.78
2023-05-03T19:10:53.365Z,101180.16
2023-05-03T19:13:19.938Z,101184.88
2023-05-03T19:15:47.014Z,101189.28
2023-05-03T19:18:16.017Z,101180.09
2023-05-03T19:20:43.669Z,101180.72
2023-05-03T19:23:10.216Z,101188.22
2023-05-03T19:25:36.956Z,101192.41
2023-05-03T19:28:05.235Z,101193.53
2023-05-03T19:30:31.849Z,101199.16
2023-05-03T19:32:58.658Z,101194.75
2023-05-03T19:35:25.274Z,101197.34
2023-05-03T19:37:51.880Z,101195.84
2023-05-03T19:40:18.690Z,101202.63
2023-05-03T19:42:45.470Z,101199.03
2023-05-03T19:45:12.364Z,101198.28
2023-05-03T19:47:39.200Z,101195.09
2023-05-03T19:50:06.736Z,101194.13
2023-05-03T19:52:33.382Z,101197.06
2023-05-03T19:55:00.169Z,101190.06
2023-05-03T19:57:26.872Z,101198.50
2023-05-03T19:59:53.456Z,101208.22
2023-05-03T20:02:22.520Z,101213.69
2023-05-03T20:04:50.617Z,101195.63
2023-05-03T20:07:17.077Z,101203.84
2023-05-03T20:09:43.652Z,101196.44
2023-05-03T20:12:10.956Z,101201.22
2023-05-03T20:14:38.252Z,101205.16
2023-05-03T20:17:06.101Z,101198.50
2023-05-03T20:19:32.574Z,101201.88
2023-05-03T20:21:59.019Z,101197.47
2023-05-03T20:24:25.670Z,101204.72
2023-05-03T20:26:53.198Z,101200.00
2023-05-03T20:29:19.757Z,101205.28
2023-05-03T20:31:48.415Z,101206.03
2023-05-03T20:34:15.153Z,101208.91
2023-05-03T20:36:41.707Z,101205.47
2023-05-03T20:39:09.604Z,101217.22
2023-05-03T20:41:36.098Z,101212.28
2023-05-03T20:44:02.576Z,101215.22
2023-05-03T20:46:29.251Z,101199.25
2023-05-03T20:48:56.048Z,101211.47
2023-05-03T20:51:23.204Z,101207.59
2023-05-03T20:53:49.982Z,101206.00
2023-05-03T20:56:16.646Z,101215.38
2023-05-03T20:58:43.272Z,101209.34
2023-05-03T21:01:10.266Z,101211.75
2023-05-03T21:03:37.026Z,101211.75
2023-05-03T21:06:05.623Z,101206.78
2023-05-03T21:08:32.839Z,101206.56
2023-05-03T21:10:59.549Z,101204.81
2023-05-03T21:13:26.113Z,101208.28
2023-05-03T21:15:52.624Z,101199.34
2023-05-03T21:18:19.454Z,101203.53
2023-05-03T21:20:46.607Z,101206.34
2023-05-03T21:23:13.362Z,101195.91
2023-05-03T21:25:39.856Z,101198.06
2023-05-03T21:28:06.308Z,101199.16
2023-05-03T21:30:32.972Z,101200.44
2023-05-03T21:32:59.441Z,101197.09
2023-05-03T21:35:25.974Z,101194.53
2023-05-03T21:37:52.524Z,101197.09
2023-05-03T21:40:21.331Z,101196.47
2023-05-03T21:42:49.969Z,101195.38
2023-05-03T21:45:16.812Z,101192.47
2023-05-03T21:47:43.358Z,101188.38
2023-05-03T21:50:10.017Z,101193.22
2023-05-03T21:52:36.896Z,101190.19
2023-05-03T21:55:03.908Z,101179.31
2023-05-03T21:57:32.489Z,101196.22
2023-05-03T21:59:59.781Z,101198.16
2023-05-03T22:02:26.356Z,101198.47
2023-05-03T22:04:52.972Z,101202.03
2023-05-03T22:07:19.649Z,101197.25
2023-05-03T22:09:48.917Z,101205.34
2023-05-03T22:14:45.825Z,101196.06
2023-05-03T22:17:12.347Z,101200.56
2023-05-03T22:19:38.882Z,101203.50
2023-05-03T22:22:05.474Z,101197.22
2023-05-03T22:24:31.984Z,101205.31
2023-05-03T22:26:59.179Z,101198.31
2023-05-03T22:29:26.438Z,101191.31
2023-05-03T22:31:53.087Z,101204.75
2023-05-03T22:34:19.602Z,101201.22
2023-05-03T22:36:46.166Z,101197.47
2023-05-03T22:39:12.638Z,101198.53
2023-05-03T22:41:39.118Z,101204.75
2023-05-03T22:44:05.742Z,101201.31
2023-05-03T22:46:32.196Z,101203.75
2023-05-03T22:48:58.704Z,101210.50
2023-05-03T22:51:25.373Z,101209.00
2023-05-03T22:53:51.903Z,101201.00
2023-05-03T22:56:18.437Z,101209.31
2023-05-03T22:58:46.808Z,101198.72
2023-05-03T23:01:13.634Z,101209.78
2023-05-03T23:03:41.124Z,101196.56
2023-05-03T23:06:07.967Z,101201.06
2023-05-03T23:08:34.523Z,101196.09
2023-05-03T23:11:00.978Z,101198.97
2023-05-03T23:13:27.467Z,101208.75
2023-05-03T23:15:54.845Z,101204.81
2023-05-03T23:18:21.489Z,101200.69
2023-05-03T23:20:48.726Z,101200.91
2023-05-03T23:23:16.193Z,101193.91
2023-05-03T23:25:42.930Z,101194.38
2023-05-03T23:28:09.670Z,101194.88
2023-05-03T23:30:36.999Z,101197.66
2023-05-03T23:33:04.206Z,101197.97
2023-05-03T23:35:31.106Z,101196.13
2023-05-03T23:37:57.702Z,101191.72
2023-05-03T23:40:24.311Z,101184.81
2023-05-03T23:42:51.061Z,101187.88
2023-05-03T23:45:17.568Z,101186.75
2023-05-03T23:47:44.129Z,101186.28
2023-05-03T23:50:10.904Z,101180.44
2023-05-03T23:52:37.387Z,101187.84
2023-05-03T23:55:05.076Z,101183.69
2023-05-03T23:57:31.535Z,101181.09
2023-05-03T23:59:58.066Z,101185.13
